sensor_id;sensor_type;location;lat;lon;timestamp;temperature;humidity
44767;DHT22;30487;48.716;9.272;2023-02-11T00:01:59;1.40;99.10
44767;DHT22;30487;48.716;9.272;2023-02-11T00:04:25;1.40;99.20
44767;DHT22;30487;48.716;9.272;2023-02-11T00:06:51;1.30;99.30
44767;DHT22;30487;48.716;9.272;2023-02-11T00:09:16;1.30;99.40
44767;DHT22;30487;48.716;9.272;2023-02-11T00:11:42;1.30;99.30
44767;DHT22;30487;48.716;9.272;2023-02-11T00:14:09;1.30;99.40
44767;DHT22;30487;48.716;9.272;2023-02-11T00:16:36;1.30;99.40
44767;DHT22;30487;48.716;9.272;2023-02-11T00:19:02;1.30;99.60
44767;DHT22;30487;48.716;9.272;2023-02-11T00:21:29;1.20;99.60
44767;DHT22;30487;48.716;9.272;2023-02-11T00:23:56;1.20;99.90
44767;DHT22;30487;48.716;9.272;2023-02-11T00:26:25;1.20;99.90
44767;DHT22;30487;48.716;9.272;2023-02-11T00:28:51;1.20;99.90
44767;DHT22;30487;48.716;9.272;2023-02-11T00:31:19;1.20;99.90
44767;DHT22;30487;48.716;9.272;2023-02-11T00:33:45;1.20;99.90
44767;DHT22;30487;48.716;9.272;2023-02-11T00:36:14;1.10;99.90
44767;DHT22;30487;48.716;9.272;2023-02-11T00:38:42;1.10;99.90
44767;DHT22;30487;48.716;9.272;2023-02-11T00:41:08;1.10;99.90
44767;DHT22;30487;48.716;9.272;2023-02-11T00:43:35;1.00;99.90
44767;DHT22;30487;48.716;9.272;2023-02-11T00:46:00;1.00;99.90
44767;DHT22;30487;48.716;9.272;2023-02-11T00:48:26;1.00;99.90
44767;DHT22;30487;48.716;9.272;2023-02-11T00:50:52;0.90;99.90
44767;DHT22;30487;48.716;9.272;2023-02-11T00:53:18;0.90;99.90
44767;DHT22;30487;48.716;9.272;2023-02-11T00:55:44;0.80;99.90
44767;DHT22;30487;48.716;9.272;2023-02-11T00:58:09;0.80;99.90
44767;DHT22;30487;48.716;9.272;2023-02-11T01:00:35;0.90;99.90
44767;DHT22;30487;48.716;9.272;2023-02-11T01:03:01;0.80;99.90
44767;DHT22;30487;48.716;9.272;2023-02-11T01:05:26;0.80;99.90
44767;DHT22;30487;48.716;9.272;2023-02-11T01:07:53;0.70;99.90
44767;DHT22;30487;48.716;9.272;2023-02-11T01:10:18;0.70;99.90
44767;DHT22;30487;48.716;9.272;2023-02-11T01:12:44;0.70;99.90
44767;DHT22;30487;48.716;9.272;2023-02-11T01:15:13;0.70;99.90
44767;DHT22;30487;48.716;9.272;2023-02-11T01:17:38;0.70;99.90
44767;DHT22;30487;48.716;9.272;2023-02-11T01:20:06;0.80;99.90
44767;DHT22;30487;48.716;9.272;2023-02-11T01:22:32;0.70;99.90
44767;DHT22;30487;48.716;9.272;2023-02-11T01:24:59;0.70;99.90
44767;DHT22;30487;48.716;9.272;2023-02-11T01:27:25;0.60;99.90
44767;DHT22;30487;48.716;9.272;2023-02-11T01:29:50;0.60;99.90
44767;DHT22;30487;48.716;9.272;2023-02-11T01:32:16;0.60;99.90
44767;DHT22;30487;48.716;9.272;2023-02-11T01:34:42;0.60;99.90
44767;DHT22;30487;48.716;9.272;2023-02-11T01:37:07;0.50;99.90
44767;DHT22;30487;48.716;9.272;2023-02-11T01:39:34;0.50;99.90
44767;DHT22;30487;48.716;9.272;2023-02-11T01:42:00;0.50;99.90
44767;DHT22;30487;48.716;9.272;2023-02-11T01:44:33;0.50;99.90
44767;DHT22;30487;48.716;9.272;2023-02-11T01:46:59;0.40;99.90
44767;DHT22;30487;48.716;9.272;2023-02-11T01:49:30;0.30;99.90
44767;DHT22;30487;48.716;9.272;2023-02-11T01:54:43;0.30;99.90
44767;DHT22;30487;48.716;9.272;2023-02-11T01:57:30;0.10;99.90
44767;DHT22;30487;48.716;9.272;2023-02-11T02:10:49;-0.60;99.90
44767;DHT22;30487;48.716;9.272;2023-02-11T02:13:18;-0.40;99.90
44767;DHT22;30487;48.716;9.272;2023-02-11T02:16:01;-0.20;99.90
44767;DHT22;30487;48.716;9.272;2023-02-11T02:35:24;0.10;99.90
44767;DHT22;30487;48.716;9.272;2023-02-11T02:38:07;0.10;99.90
44767;DHT22;30487;48.716;9.272;2023-02-11T02:40:40;0.10;99.90
44767;DHT22;30487;48.716;9.272;2023-02-11T02:43:09;0.10;99.90
44767;DHT22;30487;48.716;9.272;2023-02-11T02:45:35;0.00;99.90
44767;DHT22;30487;48.716;9.272;2023-02-11T02:48:00;0.10;99.90
44767;DHT22;30487;48.716;9.272;2023-02-11T02:50:30;0.10;99.90
44767;DHT22;30487;48.716;9.272;2023-02-11T03:01:05;0.20;99.90
44767;DHT22;30487;48.716;9.272;2023-02-11T03:09:28;0.20;99.90
44767;DHT22;30487;48.716;9.272;2023-02-11T03:11:55;0.20;99.90
44767;DHT22;30487;48.716;9.272;2023-02-11T03:14:23;0.10;99.90
44767;DHT22;30487;48.716;9.272;2023-02-11T03:16:53;0.10;99.90
44767;DHT22;30487;48.716;9.272;2023-02-11T03:19:43;0.00;99.90
44767;DHT22;30487;48.716;9.272;2023-02-11T03:22:21;-0.20;99.90
44767;DHT22;30487;48.716;9.272;2023-02-11T03:24:49;-0.30;99.90
44767;DHT22;30487;48.716;9.272;2023-02-11T03:27:27;-0.30;99.90
44767;DHT22;30487;48.716;9.272;2023-02-11T03:32:32;-0.50;99.90
44767;DHT22;30487;48.716;9.272;2023-02-11T03:35:52;-0.40;99.90
44767;DHT22;30487;48.716;9.272;2023-02-11T03:38:20;-0.30;99.90
44767;DHT22;30487;48.716;9.272;2023-02-11T03:40:46;-0.20;99.90
44767;DHT22;30487;48.716;9.272;2023-02-11T03:43:29;-0.10;99.90
44767;DHT22;30487;48.716;9.272;2023-02-11T03:45:57;-0.10;99.90
44767;DHT22;30487;48.716;9.272;2023-02-11T03:48:28;-0.10;99.90
44767;DHT22;30487;48.716;9.272;2023-02-11T03:50:55;0.00;99.90
44767;DHT22;30487;48.716;9.272;2023-02-11T03:53:22;0.00;99.90
44767;DHT22;30487;48.716;9.272;2023-02-11T03:55:50;0.00;99.90
44767;DHT22;30487;48.716;9.272;2023-02-11T03:58:17;0.00;99.90
44767;DHT22;30487;48.716;9.272;2023-02-11T04:00:44;0.10;99.90
44767;DHT22;30487;48.716;9.272;2023-02-11T04:03:10;0.00;99.90
44767;DHT22;30487;48.716;9.272;2023-02-11T04:05:37;0.10;99.90
44767;DHT22;30487;48.716;9.272;2023-02-11T04:08:02;0.10;99.90
44767;DHT22;30487;48.716;9.272;2023-02-11T04:10:28;0.10;99.90
44767;DHT22;30487;48.716;9.272;2023-02-11T04:12:54;0.20;99.90
44767;DHT22;30487;48.716;9.272;2023-02-11T04:15:19;0.20;99.90
44767;DHT22;30487;48.716;9.272;2023-02-11T04:17:45;0.20;99.90
44767;DHT22;30487;48.716;9.272;2023-02-11T04:20:11;0.30;99.90
44767;DHT22;30487;48.716;9.272;2023-02-11T04:22:37;0.30;99.90
44767;DHT22;30487;48.716;9.272;2023-02-11T04:25:04;0.30;99.90
44767;DHT22;30487;48.716;9.272;2023-02-11T04:27:29;0.30;99.90
44767;DHT22;30487;48.716;9.272;2023-02-11T04:29:55;0.30;99.90
44767;DHT22;30487;48.716;9.272;2023-02-11T04:32:21;0.30;99.90
44767;DHT22;30487;48.716;9.272;2023-02-11T04:34:47;0.40;99.90
44767;DHT22;30487;48.716;9.272;2023-02-11T04:37:12;0.40;99.90
44767;DHT22;30487;48.716;9.272;2023-02-11T04:39:38;0.30;99.90
44767;DHT22;30487;48.716;9.272;2023-02-11T04:42:04;0.40;99.90
44767;DHT22;30487;48.716;9.272;2023-02-11T04:44:30;0.40;99.90
44767;DHT22;30487;48.716;9.272;2023-02-11T04:46:56;0.30;99.90
44767;DHT22;30487;48.716;9.272;2023-02-11T04:49:21;0.30;99.90
44767;DHT22;30487;48.716;9.272;2023-02-11T04:51:47;0.30;99.90
44767;DHT22;30487;48.716;9.272;2023-02-11T04:54:13;0.30;99.90
44767;DHT22;30487;48.716;9.272;2023-02-11T04:56:38;0.30;99.90
44767;DHT22;30487;48.716;9.272;2023-02-11T04:59:05;0.40;99.90
44767;DHT22;30487;48.716;9.272;2023-02-11T05:01:30;0.30;99.90
44767;DHT22;30487;48.716;9.272;2023-02-11T05:03:56;0.30;99.90
44767;DHT22;30487;48.716;9.272;2023-02-11T05:06:22;0.30;99.90
44767;DHT22;30487;48.716;9.272;2023-02-11T05:08:47;0.40;99.90
44767;DHT22;30487;48.716;9.272;2023-02-11T05:11:17;0.30;99.90
44767;DHT22;30487;48.716;9.272;2023-02-11T05:13:43;0.30;99.90
44767;DHT22;30487;48.716;9.272;2023-02-11T05:16:09;0.30;99.90
44767;DHT22;30487;48.716;9.272;2023-02-11T05:18:40;0.30;99.90
44767;DHT22;30487;48.716;9.272;2023-02-11T05:21:16;0.30;99.90
44767;DHT22;30487;48.716;9.272;2023-02-11T05:23:42;0.30;99.90
44767;DHT22;30487;48.716;9.272;2023-02-11T05:26:08;-0.10;99.90
44767;DHT22;30487;48.716;9.272;2023-02-11T05:28:34;-0.20;99.90
44767;DHT22;30487;48.716;9.272;2023-02-11T05:31:00;-0.30;99.90
44767;DHT22;30487;48.716;9.272;2023-02-11T05:33:26;-0.30;99.90
44767;DHT22;30487;48.716;9.272;2023-02-11T05:35:57;-0.40;99.90
44767;DHT22;30487;48.716;9.272;2023-02-11T05:38:23;-0.40;99.90
44767;DHT22;30487;48.716;9.272;2023-02-11T05:40:49;-0.40;99.90
44767;DHT22;30487;48.716;9.272;2023-02-11T05:43:14;-0.30;99.90
44767;DHT22;30487;48.716;9.272;2023-02-11T05:45:40;-0.20;99.90
44767;DHT22;30487;48.716;9.272;2023-02-11T05:48:05;-0.10;99.90
44767;DHT22;30487;48.716;9.272;2023-02-11T05:50:31;0.00;99.90
44767;DHT22;30487;48.716;9.272;2023-02-11T05:52:56;0.10;99.90
44767;DHT22;30487;48.716;9.272;2023-02-11T05:55:22;0.10;99.90
44767;DHT22;30487;48.716;9.272;2023-02-11T05:57:47;0.10;99.90
44767;DHT22;30487;48.716;9.272;2023-02-11T06:00:13;0.20;99.90
44767;DHT22;30487;48.716;9.272;2023-02-11T06:02:39;0.20;99.90
44767;DHT22;30487;48.716;9.272;2023-02-11T06:05:05;0.20;99.90
44767;DHT22;30487;48.716;9.272;2023-02-11T06:07:31;0.30;99.90
44767;DHT22;30487;48.716;9.272;2023-02-11T06:09:56;0.40;99.90
44767;DHT22;30487;48.716;9.272;2023-02-11T06:12:22;0.40;99.90
44767;DHT22;30487;48.716;9.272;2023-02-11T06:14:48;0.50;99.90
44767;DHT22;30487;48.716;9.272;2023-02-11T06:17:13;0.50;99.90
44767;DHT22;30487;48.716;9.272;2023-02-11T06:19:39;0.50;99.90
44767;DHT22;30487;48.716;9.272;2023-02-11T06:22:04;0.60;99.90
44767;DHT22;30487;48.716;9.272;2023-02-11T06:24:30;0.60;99.90
44767;DHT22;30487;48.716;9.272;2023-02-11T06:26:56;0.60;99.90
44767;DHT22;30487;48.716;9.272;2023-02-11T06:29:21;0.70;99.90
44767;DHT22;30487;48.716;9.272;2023-02-11T06:31:47;0.80;99.90
44767;DHT22;30487;48.716;9.272;2023-02-11T06:34:12;0.80;99.90
44767;DHT22;30487;48.716;9.272;2023-02-11T06:36:39;0.80;99.90
44767;DHT22;30487;48.716;9.272;2023-02-11T06:39:05;0.80;99.90
44767;DHT22;30487;48.716;9.272;2023-02-11T06:41:31;0.70;99.90
44767;DHT22;30487;48.716;9.272;2023-02-11T06:43:57;0.80;99.90
44767;DHT22;30487;48.716;9.272;2023-02-11T06:46:22;0.80;99.90
44767;DHT22;30487;48.716;9.272;2023-02-11T06:48:48;0.80;99.90
44767;DHT22;30487;48.716;9.272;2023-02-11T06:51:14;0.80;99.90
44767;DHT22;30487;48.716;9.272;2023-02-11T06:53:44;0.80;99.90
44767;DHT22;30487;48.716;9.272;2023-02-11T06:56:18;0.50;99.90
44767;DHT22;30487;48.716;9.272;2023-02-11T06:58:45;0.50;99.90
44767;DHT22;30487;48.716;9.272;2023-02-11T07:01:13;0.60;99.90
44767;DHT22;30487;48.716;9.272;2023-02-11T07:03:41;0.70;99.90
44767;DHT22;30487;48.716;9.272;2023-02-11T07:06:11;0.60;99.90
44767;DHT22;30487;48.716;9.272;2023-02-11T07:08:37;0.60;99.90
44767;DHT22;30487;48.716;9.272;2023-02-11T07:11:25;0.60;99.90
44767;DHT22;30487;48.716;9.272;2023-02-11T07:13:52;0.60;99.90
44767;DHT22;30487;48.716;9.272;2023-02-11T07:16:19;0.70;99.90
44767;DHT22;30487;48.716;9.272;2023-02-11T07:18:45;0.70;99.90
44767;DHT22;30487;48.716;9.272;2023-02-11T07:21:13;0.80;99.90
44767;DHT22;30487;48.716;9.272;2023-02-11T07:23:39;0.80;99.90
44767;DHT22;30487;48.716;9.272;2023-02-11T07:26:11;0.90;99.90
44767;DHT22;30487;48.716;9.272;2023-02-11T07:28:37;0.60;99.90
44767;DHT22;30487;48.716;9.272;2023-02-11T07:31:14;0.50;99.90
44767;DHT22;30487;48.716;9.272;2023-02-11T07:33:41;0.30;99.90
44767;DHT22;30487;48.716;9.272;2023-02-11T07:36:07;0.20;99.90
44767;DHT22;30487;48.716;9.272;2023-02-11T07:38:35;0.30;99.90
44767;DHT22;30487;48.716;9.272;2023-02-11T07:41:03;0.50;99.90
44767;DHT22;30487;48.716;9.272;2023-02-11T07:43:30;0.70;99.90
44767;DHT22;30487;48.716;9.272;2023-02-11T07:45:55;0.90;99.90
44767;DHT22;30487;48.716;9.272;2023-02-11T07:48:21;1.10;99.90
44767;DHT22;30487;48.716;9.272;2023-02-11T07:50:47;1.40;99.90
44767;DHT22;30487;48.716;9.272;2023-02-11T07:53:13;1.50;99.90
44767;DHT22;30487;48.716;9.272;2023-02-11T07:55:41;1.80;99.90
44767;DHT22;30487;48.716;9.272;2023-02-11T07:58:07;1.80;99.90
44767;DHT22;30487;48.716;9.272;2023-02-11T08:00:33;2.00;99.90
44767;DHT22;30487;48.716;9.272;2023-02-11T08:02:59;2.00;99.90
44767;DHT22;30487;48.716;9.272;2023-02-11T08:05:24;2.00;99.90
44767;DHT22;30487;48.716;9.272;2023-02-11T08:07:51;1.90;99.90
44767;DHT22;30487;48.716;9.272;2023-02-11T08:10:17;1.90;99.90
44767;DHT22;30487;48.716;9.272;2023-02-11T08:12:43;1.70;99.90
44767;DHT22;30487;48.716;9.272;2023-02-11T08:15:08;1.70;99.90
44767;DHT22;30487;48.716;9.272;2023-02-11T08:17:35;1.90;99.90
44767;DHT22;30487;48.716;9.272;2023-02-11T08:20:01;1.90;99.90
44767;DHT22;30487;48.716;9.272;2023-02-11T08:22:26;2.00;99.90
44767;DHT22;30487;48.716;9.272;2023-02-11T08:24:52;2.30;99.90
44767;DHT22;30487;48.716;9.272;2023-02-11T08:27:17;2.70;99.90
44767;DHT22;30487;48.716;9.272;2023-02-11T08:29:43;3.20;99.90
44767;DHT22;30487;48.716;9.272;2023-02-11T08:32:08;3.60;99.90
44767;DHT22;30487;48.716;9.272;2023-02-11T08:34:34;4.00;99.90
44767;DHT22;30487;48.716;9.272;2023-02-11T08:37:01;4.10;99.90
44767;DHT22;30487;48.716;9.272;2023-02-11T08:39:26;4.20;99.90
44767;DHT22;30487;48.716;9.272;2023-02-11T08:41:53;4.20;99.90
44767;DHT22;30487;48.716;9.272;2023-02-11T08:44:22;4.20;99.90
44767;DHT22;30487;48.716;9.272;2023-02-11T08:46:48;4.10;99.90
44767;DHT22;30487;48.716;9.272;2023-02-11T08:49:14;4.30;99.90
44767;DHT22;30487;48.716;9.272;2023-02-11T08:51:40;4.50;99.90
44767;DHT22;30487;48.716;9.272;2023-02-11T08:54:06;4.70;99.90
44767;DHT22;30487;48.716;9.272;2023-02-11T08:56:34;4.90;99.90
44767;DHT22;30487;48.716;9.272;2023-02-11T08:59:00;5.30;99.90
44767;DHT22;30487;48.716;9.272;2023-02-11T09:01:28;5.70;99.90
44767;DHT22;30487;48.716;9.272;2023-02-11T09:03:55;6.00;99.90
44767;DHT22;30487;48.716;9.272;2023-02-11T09:06:21;6.70;99.90
44767;DHT22;30487;48.716;9.272;2023-02-11T09:08:49;7.00;99.90
44767;DHT22;30487;48.716;9.272;2023-02-11T09:11:17;7.30;99.30
44767;DHT22;30487;48.716;9.272;2023-02-11T09:13:44;7.70;98.40
44767;DHT22;30487;48.716;9.272;2023-02-11T09:16:27;8.20;96.60
44767;DHT22;30487;48.716;9.272;2023-02-11T09:18:56;8.50;94.70
44767;DHT22;30487;48.716;9.272;2023-02-11T09:21:21;9.00;93.10
44767;DHT22;30487;48.716;9.272;2023-02-11T09:23:47;9.10;92.30
44767;DHT22;30487;48.716;9.272;2023-02-11T09:26:19;9.10;91.30
44767;DHT22;30487;48.716;9.272;2023-02-11T09:28:45;9.30;91.30
44767;DHT22;30487;48.716;9.272;2023-02-11T09:31:17;9.60;90.90
44767;DHT22;30487;48.716;9.272;2023-02-11T09:33:44;9.90;88.90
44767;DHT22;30487;48.716;9.272;2023-02-11T09:36:21;10.10;87.20
44767;DHT22;30487;48.716;9.272;2023-02-11T09:38:48;10.00;86.30
44767;DHT22;30487;48.716;9.272;2023-02-11T09:41:26;9.90;84.90
44767;DHT22;30487;48.716;9.272;2023-02-11T09:43:59;10.10;84.30
44767;DHT22;30487;48.716;9.272;2023-02-11T09:46:32;10.10;85.00
44767;DHT22;30487;48.716;9.272;2023-02-11T09:48:59;10.10;83.40
44767;DHT22;30487;48.716;9.272;2023-02-11T09:51:42;10.10;83.60
44767;DHT22;30487;48.716;9.272;2023-02-11T09:54:26;10.60;83.30
44767;DHT22;30487;48.716;9.272;2023-02-11T09:56:52;10.80;81.20
44767;DHT22;30487;48.716;9.272;2023-02-11T09:59:18;10.00;82.30
44767;DHT22;30487;48.716;9.272;2023-02-11T10:01:57;10.30;83.10
44767;DHT22;30487;48.716;9.272;2023-02-11T10:04:42;10.40;81.50
44767;DHT22;30487;48.716;9.272;2023-02-11T10:07:36;10.60;81.10
44767;DHT22;30487;48.716;9.272;2023-02-11T10:13:10;10.90;78.70
44767;DHT22;30487;48.716;9.272;2023-02-11T10:21:26;11.70;77.50
44767;DHT22;30487;48.716;9.272;2023-02-11T10:24:00;12.20;76.80
44767;DHT22;30487;48.716;9.272;2023-02-11T10:26:29;12.50;76.30
44767;DHT22;30487;48.716;9.272;2023-02-11T10:28:58;12.60;75.30
44767;DHT22;30487;48.716;9.272;2023-02-11T10:31:34;12.90;74.40
44767;DHT22;30487;48.716;9.272;2023-02-11T10:34:06;13.10;73.60
44767;DHT22;30487;48.716;9.272;2023-02-11T10:36:36;13.60;71.60
44767;DHT22;30487;48.716;9.272;2023-02-11T10:39:23;13.80;71.10
44767;DHT22;30487;48.716;9.272;2023-02-11T10:42:08;13.90;70.00
44767;DHT22;30487;48.716;9.272;2023-02-11T10:44:42;14.10;67.80
44767;DHT22;30487;48.716;9.272;2023-02-11T10:47:21;14.30;67.60
44767;DHT22;30487;48.716;9.272;2023-02-11T10:49:47;14.80;67.10
44767;DHT22;30487;48.716;9.272;2023-02-11T10:52:20;15.00;65.90
44767;DHT22;30487;48.716;9.272;2023-02-11T10:57:36;14.50;66.20
44767;DHT22;30487;48.716;9.272;2023-02-11T11:02:58;15.10;65.10
44767;DHT22;30487;48.716;9.272;2023-02-11T11:05:34;15.30;64.10
44767;DHT22;30487;48.716;9.272;2023-02-11T11:08:07;15.40;64.30
44767;DHT22;30487;48.716;9.272;2023-02-11T11:10:39;15.50;63.60
44767;DHT22;30487;48.716;9.272;2023-02-11T11:13:31;15.50;63.60
44767;DHT22;30487;48.716;9.272;2023-02-11T11:18:34;15.70;61.90
44767;DHT22;30487;48.716;9.272;2023-02-11T11:21:24;15.50;62.60
44767;DHT22;30487;48.716;9.272;2023-02-11T11:23:58;15.60;62.20
44767;DHT22;30487;48.716;9.272;2023-02-11T11:26:42;16.00;60.90
44767;DHT22;30487;48.716;9.272;2023-02-11T11:29:15;16.30;60.10
44767;DHT22;30487;48.716;9.272;2023-02-11T11:31:51;16.50;59.80
44767;DHT22;30487;48.716;9.272;2023-02-11T11:36:58;17.20;58.90
44767;DHT22;30487;48.716;9.272;2023-02-11T11:39:30;17.50;57.80
44767;DHT22;30487;48.716;9.272;2023-02-11T11:42:02;16.30;57.90
44767;DHT22;30487;48.716;9.272;2023-02-11T11:44:33;15.70;59.60
44767;DHT22;30487;48.716;9.272;2023-02-11T11:49:46;16.20;59.60
44767;DHT22;30487;48.716;9.272;2023-02-11T11:55:21;17.70;57.60
44767;DHT22;30487;48.716;9.272;2023-02-11T11:57:49;17.40;58.20
44767;DHT22;30487;48.716;9.272;2023-02-11T12:00:20;18.30;56.10
44767;DHT22;30487;48.716;9.272;2023-02-11T12:09:05;18.40;57.00
44767;DHT22;30487;48.716;9.272;2023-02-11T12:12:02;18.80;55.70
44767;DHT22;30487;48.716;9.272;2023-02-11T12:17:32;19.40;54.00
44767;DHT22;30487;48.716;9.272;2023-02-11T12:26:04;19.30;54.10
44767;DHT22;30487;48.716;9.272;2023-02-11T12:34:54;17.90;55.90
44767;DHT22;30487;48.716;9.272;2023-02-11T12:37:57;17.30;56.60
44767;DHT22;30487;48.716;9.272;2023-02-11T12:40:36;17.00;57.10
44767;DHT22;30487;48.716;9.272;2023-02-11T12:43:10;16.60;57.30
44767;DHT22;30487;48.716;9.272;2023-02-11T12:51:00;15.70;58.20
44767;DHT22;30487;48.716;9.272;2023-02-11T12:53:40;15.50;58.70
44767;DHT22;30487;48.716;9.272;2023-02-11T12:56:32;15.30;59.00
44767;DHT22;30487;48.716;9.272;2023-02-11T12:59:04;15.00;59.40
44767;DHT22;30487;48.716;9.272;2023-02-11T13:01:38;14.70;59.80
44767;DHT22;30487;48.716;9.272;2023-02-11T13:04:18;14.40;60.10
44767;DHT22;30487;48.716;9.272;2023-02-11T13:06:50;14.00;61.00
44767;DHT22;30487;48.716;9.272;2023-02-11T13:09:24;13.90;61.50
44767;DHT22;30487;48.716;9.272;2023-02-11T13:11:54;13.90;61.60
44767;DHT22;30487;48.716;9.272;2023-02-11T13:14:33;13.80;61.80
44767;DHT22;30487;48.716;9.272;2023-02-11T13:17:04;13.70;62.30
44767;DHT22;30487;48.716;9.272;2023-02-11T13:19:44;13.70;62.90
44767;DHT22;30487;48.716;9.272;2023-02-11T13:22:40;13.60;63.60
44767;DHT22;30487;48.716;9.272;2023-02-11T13:25:34;13.70;64.80
44767;DHT22;30487;48.716;9.272;2023-02-11T13:28:22;14.20;64.60
44767;DHT22;30487;48.716;9.272;2023-02-11T13:30:50;14.70;63.10
44767;DHT22;30487;48.716;9.272;2023-02-11T13:38:28;15.40;62.60
44767;DHT22;30487;48.716;9.272;2023-02-11T13:44:18;16.10;61.70
44767;DHT22;30487;48.716;9.272;2023-02-11T13:46:58;15.80;62.00
44767;DHT22;30487;48.716;9.272;2023-02-11T13:49:36;15.50;62.60
44767;DHT22;30487;48.716;9.272;2023-02-11T13:52:17;15.20;63.20
44767;DHT22;30487;48.716;9.272;2023-02-11T13:54:46;15.30;63.40
44767;DHT22;30487;48.716;9.272;2023-02-11T13:59:46;14.60;64.20
44767;DHT22;30487;48.716;9.272;2023-02-11T14:02:28;14.50;64.80
44767;DHT22;30487;48.716;9.272;2023-02-11T14:05:32;14.10;65.10
44767;DHT22;30487;48.716;9.272;2023-02-11T14:08:19;13.90;66.20
44767;DHT22;30487;48.716;9.272;2023-02-11T14:11:06;14.20;66.40
44767;DHT22;30487;48.716;9.272;2023-02-11T14:16:19;16.20;64.90
44767;DHT22;30487;48.716;9.272;2023-02-11T14:23:50;17.10;61.90
44767;DHT22;30487;48.716;9.272;2023-02-11T14:37:51;18.70;61.10
44767;DHT22;30487;48.716;9.272;2023-02-11T14:40:31;18.50;59.80
44767;DHT22;30487;48.716;9.272;2023-02-11T14:43:11;18.20;59.70
44767;DHT22;30487;48.716;9.272;2023-02-11T14:45:50;18.00;60.00
44767;DHT22;30487;48.716;9.272;2023-02-11T14:48:17;18.10;59.90
44767;DHT22;30487;48.716;9.272;2023-02-11T14:50:47;18.10;60.20
44767;DHT22;30487;48.716;9.272;2023-02-11T14:53:19;18.20;60.00
44767;DHT22;30487;48.716;9.272;2023-02-11T14:55:50;18.00;59.90
44767;DHT22;30487;48.716;9.272;2023-02-11T14:58:30;18.10;60.00
44767;DHT22;30487;48.716;9.272;2023-02-11T15:01:00;18.00;59.90
44767;DHT22;30487;48.716;9.272;2023-02-11T15:03:32;18.10;60.10
44767;DHT22;30487;48.716;9.272;2023-02-11T15:06:06;17.90;60.10
44767;DHT22;30487;48.716;9.272;2023-02-11T15:08:34;17.90;60.50
44767;DHT22;30487;48.716;9.272;2023-02-11T15:11:03;17.90;61.70
44767;DHT22;30487;48.716;9.272;2023-02-11T15:13:32;17.80;61.80
44767;DHT22;30487;48.716;9.272;2023-02-11T15:16:07;17.70;63.20
44767;DHT22;30487;48.716;9.272;2023-02-11T15:18:36;17.30;63.60
44767;DHT22;30487;48.716;9.272;2023-02-11T15:21:03;16.80;64.50
44767;DHT22;30487;48.716;9.272;2023-02-11T15:23:30;16.80;65.30
44767;DHT22;30487;48.716;9.272;2023-02-11T15:25:56;16.80;64.70
44767;DHT22;30487;48.716;9.272;2023-02-11T15:28:29;16.90;65.20
44767;DHT22;30487;48.716;9.272;2023-02-11T15:31:04;17.10;64.40
44767;DHT22;30487;48.716;9.272;2023-02-11T15:33:30;17.00;62.30
44767;DHT22;30487;48.716;9.272;2023-02-11T15:35:59;16.90;62.10
44767;DHT22;30487;48.716;9.272;2023-02-11T15:38:26;16.70;62.00
44767;DHT22;30487;48.716;9.272;2023-02-11T15:41:00;16.40;62.50
44767;DHT22;30487;48.716;9.272;2023-02-11T15:43:47;16.10;62.50
44767;DHT22;30487;48.716;9.272;2023-02-11T15:46:16;15.40;63.40
44767;DHT22;30487;48.716;9.272;2023-02-11T15:48:48;15.10;64.00
44767;DHT22;30487;48.716;9.272;2023-02-11T15:53:55;14.70;64.80
44767;DHT22;30487;48.716;9.272;2023-02-11T15:56:29;14.40;65.20
44767;DHT22;30487;48.716;9.272;2023-02-11T15:58:59;14.10;65.70
44767;DHT22;30487;48.716;9.272;2023-02-11T16:01:34;13.80;66.30
44767;DHT22;30487;48.716;9.272;2023-02-11T16:04:00;13.40;67.00
44767;DHT22;30487;48.716;9.272;2023-02-11T16:06:35;13.20;67.60
44767;DHT22;30487;48.716;9.272;2023-02-11T16:09:28;13.00;68.00
44767;DHT22;30487;48.716;9.272;2023-02-11T16:16:47;12.20;69.70
44767;DHT22;30487;48.716;9.272;2023-02-11T16:19:18;12.00;70.30
44767;DHT22;30487;48.716;9.272;2023-02-11T16:21:44;11.90;70.60
44767;DHT22;30487;48.716;9.272;2023-02-11T16:24:36;11.60;71.30
44767;DHT22;30487;48.716;9.272;2023-02-11T16:27:07;11.40;72.00
44767;DHT22;30487;48.716;9.272;2023-02-11T16:29:45;11.20;72.70
44767;DHT22;30487;48.716;9.272;2023-02-11T16:32:20;11.00;73.20
44767;DHT22;30487;48.716;9.272;2023-02-11T16:34:46;10.90;73.80
44767;DHT22;30487;48.716;9.272;2023-02-11T16:37:12;10.70;74.30
44767;DHT22;30487;48.716;9.272;2023-02-11T16:39:38;10.60;74.70
44767;DHT22;30487;48.716;9.272;2023-02-11T16:42:03;10.50;75.20
44767;DHT22;30487;48.716;9.272;2023-02-11T16:44:32;10.40;75.70
44767;DHT22;30487;48.716;9.272;2023-02-11T16:46:59;10.20;76.40
44767;DHT22;30487;48.716;9.272;2023-02-11T16:49:25;10.00;77.10
44767;DHT22;30487;48.716;9.272;2023-02-11T16:51:54;10.00;77.50
44767;DHT22;30487;48.716;9.272;2023-02-11T16:54:22;9.90;78.60
44767;DHT22;30487;48.716;9.272;2023-02-11T16:56:48;9.80;79.00
44767;DHT22;30487;48.716;9.272;2023-02-11T16:59:14;9.70;78.90
44767;DHT22;30487;48.716;9.272;2023-02-11T17:01:41;9.70;79.10
44767;DHT22;30487;48.716;9.272;2023-02-11T17:04:19;9.60;79.30
44767;DHT22;30487;48.716;9.272;2023-02-11T17:06:45;9.50;79.70
44767;DHT22;30487;48.716;9.272;2023-02-11T17:09:30;9.40;80.10
44767;DHT22;30487;48.716;9.272;2023-02-11T17:11:56;9.40;80.50
44767;DHT22;30487;48.716;9.272;2023-02-11T17:14:21;9.40;80.80
44767;DHT22;30487;48.716;9.272;2023-02-11T17:16:47;9.40;81.20
44767;DHT22;30487;48.716;9.272;2023-02-11T17:19:15;9.30;81.30
44767;DHT22;30487;48.716;9.272;2023-02-11T17:21:45;9.30;81.70
44767;DHT22;30487;48.716;9.272;2023-02-11T17:24:11;9.20;81.80
44767;DHT22;30487;48.716;9.272;2023-02-11T17:26:39;9.20;82.10
44767;DHT22;30487;48.716;9.272;2023-02-11T17:29:06;9.20;82.30
44767;DHT22;30487;48.716;9.272;2023-02-11T17:31:32;9.20;82.60
44767;DHT22;30487;48.716;9.272;2023-02-11T17:33:57;9.10;82.90
44767;DHT22;30487;48.716;9.272;2023-02-11T17:36:23;9.10;83.40
44767;DHT22;30487;48.716;9.272;2023-02-11T17:38:49;8.90;83.70
44767;DHT22;30487;48.716;9.272;2023-02-11T17:41:15;8.90;84.50
44767;DHT22;30487;48.716;9.272;2023-02-11T17:43:41;8.90;85.00
44767;DHT22;30487;48.716;9.272;2023-02-11T17:46:08;8.90;85.20
44767;DHT22;30487;48.716;9.272;2023-02-11T17:48:36;8.90;85.30
44767;DHT22;30487;48.716;9.272;2023-02-11T17:51:03;8.90;85.50
44767;DHT22;30487;48.716;9.272;2023-02-11T17:53:28;8.80;85.90
44767;DHT22;30487;48.716;9.272;2023-02-11T17:55:54;8.70;86.20
44767;DHT22;30487;48.716;9.272;2023-02-11T17:58:21;8.70;86.50
44767;DHT22;30487;48.716;9.272;2023-02-11T18:00:47;8.70;86.70
44767;DHT22;30487;48.716;9.272;2023-02-11T18:03:12;8.60;87.20
44767;DHT22;30487;48.716;9.272;2023-02-11T18:05:38;8.50;87.60
44767;DHT22;30487;48.716;9.272;2023-02-11T18:08:05;8.50;88.30
44767;DHT22;30487;48.716;9.272;2023-02-11T18:10:31;8.40;88.20
44767;DHT22;30487;48.716;9.272;2023-02-11T18:12:58;8.40;88.80
44767;DHT22;30487;48.716;9.272;2023-02-11T18:15:24;8.40;89.80